Time;durP1;ratioP1;P1;durP2;ratioP2;P2;SDS_P1;SDS_P2;PMS_P1;PMS_P2;Temp;Humidity;BMP_temperature;BMP_pressure;BME280_temperature;BME280_humidity;BME280_pressure;Samples;Min_cycle;Max_cycle;Signal;HPM_P1;HPM_P2
2022/06/08 00:02:10;;;;;;;4.35;2.58;;;14.70;99.90;14.70;100163.00;;;;4990632;28;93498;-69
2022/06/08 00:04:37;;;;;;;3.22;2.65;;;14.70;99.90;14.70;100164.00;;;;4991664;28;92604;-69
2022/06/08 00:07:03;;;;;;;3.53;2.33;;;14.70;99.90;14.60;100169.00;;;;4974722;28;93355;-69
2022/06/08 00:09:29;;;;;;;5.90;3.23;;;14.60;99.90;14.60;100154.00;;;;4992950;28;91923;-69
2022/06/08 00:11:55;;;;;;;2.97;2.67;;;14.60;99.90;14.60;100164.00;;;;4991525;28;109209;-70
2022/06/08 00:14:20;;;;;;;2.60;2.35;;;14.50;99.90;14.50;100158.00;;;;4992602;28;92454;-69
2022/06/08 00:16:47;;;;;;;2.45;1.90;;;14.50;99.90;14.50;100154.00;;;;4973167;28;123211;-69
2022/06/08 00:19:12;;;;;;;2.40;2.20;;;14.40;99.90;14.50;100154.00;;;;4975125;28;91886;-70
2022/06/08 00:21:39;;;;;;;2.53;2.17;;;14.40;99.90;14.40;100156.00;;;;4974092;28;107785;-69
2022/06/08 00:24:05;;;;;;;2.93;2.63;;;14.40;99.90;14.40;100165.00;;;;4974311;28;98030;-69
2022/06/08 00:26:32;;;;;;;3.87;2.80;;;14.30;99.90;14.30;100162.00;;;;4990909;28;123438;-69
2022/06/08 00:28:58;;;;;;;3.60;2.50;;;14.30;99.90;14.30;100158.00;;;;4970342;28;110774;-69
2022/06/08 00:31:23;;;;;;;3.37;2.87;;;14.30;99.90;14.20;100160.00;;;;4954203;28;107370;-69
2022/06/08 00:33:49;;;;;;;5.50;2.83;;;14.20;99.90;14.20;100152.00;;;;4970734;28;123184;-69
2022/06/08 00:36:15;;;;;;;2.90;2.30;;;14.20;99.90;14.10;100153.00;;;;4971613;28;118637;-68
2022/06/08 00:38:41;;;;;;;4.00;2.80;;;14.10;99.90;14.10;100149.00;;;;4972093;28;96400;-69
2022/06/08 00:41:40;;;;;;;3.13;2.67;;;14.10;99.90;14.00;100153.00;;;;4972085;28;108075;-69
2022/06/08 00:44:25;;;;;;;4.97;2.70;;;14.00;99.90;14.00;100155.00;;;;4972706;28;91680;-69
2022/06/08 00:46:51;;;;;;;3.20;2.73;;;14.00;99.90;14.00;100159.00;;;;4953506;28;112276;-69
2022/06/08 00:49:27;;;;;;;2.37;2.17;;;13.90;99.90;13.90;100158.00;;;;4971351;28;110068;-69
2022/06/08 00:51:53;;;;;;;3.53;2.80;;;13.90;99.90;13.90;100152.00;;;;4986867;28;93407;-70
2022/06/08 00:54:33;;;;;;;4.33;3.17;;;13.90;99.90;13.90;100152.00;;;;4971818;28;115549;-69
2022/06/08 00:57:11;;;;;;;5.33;3.23;;;13.90;99.90;13.80;100147.00;;;;4986680;28;92619;-69
2022/06/08 00:59:45;;;;;;;4.53;3.00;;;13.80;99.90;13.70;100147.00;;;;5003110;28;92477;-69
2022/06/08 01:02:11;;;;;;;5.07;2.20;;;13.80;99.90;13.70;100145.00;;;;4970008;28;92188;-70
2022/06/08 01:04:36;;;;;;;3.17;2.87;;;13.70;99.90;13.60;100147.00;;;;4970635;28;121817;-69
2022/06/08 01:07:04;;;;;;;3.77;3.10;;;13.60;99.90;13.60;100149.00;;;;4970540;28;122346;-69
2022/06/08 01:09:38;;;;;;;3.17;2.87;;;13.60;99.90;13.50;100152.00;;;;4972255;28;108887;-69
2022/06/08 01:12:18;;;;;;;3.53;3.23;;;13.50;99.90;13.40;100149.00;;;;4971953;28;100273;-70
2022/06/08 01:14:44;;;;;;;5.30;3.23;;;13.50;99.90;13.40;100165.00;;;;5003272;28;99382;-69
2022/06/08 01:17:15;;;;;;;3.63;2.70;;;13.40;99.90;13.40;100151.00;;;;4998838;28;93645;-69
2022/06/08 01:19:44;;;;;;;3.00;2.70;;;13.40;99.90;13.30;100142.00;;;;4963504;28;92436;-69
2022/06/08 01:22:16;;;;;;;3.17;2.40;;;13.30;99.90;13.30;100137.00;;;;4954243;28;92069;-70
2022/06/08 01:24:45;;;;;;;3.40;2.93;;;13.30;99.90;13.20;100133.00;;;;4971825;28;92942;-69
2022/06/08 01:27:56;;;;;;;5.33;3.77;;;13.20;99.90;13.10;100138.00;;;;4954603;28;93822;-69
2022/06/08 01:30:29;;;;;;;4.47;3.87;;;13.20;99.90;13.20;100147.00;;;;4987027;28;92787;-69
2022/06/08 01:33:21;;;;;;;4.83;3.47;;;13.10;99.90;13.10;100144.00;;;;4986449;28;92245;-69
2022/06/08 01:36:43;;;;;;;4.37;2.77;;;13.10;99.90;13.00;100138.00;;;;4971556;28;106373;-69
2022/06/08 01:39:36;;;;;;;4.33;2.87;;;13.10;99.90;13.00;100133.00;;;;4942410;28;92990;-68
2022/06/08 01:42:45;;;;;;;3.67;2.60;;;13.00;99.90;13.00;100121.00;;;;4977298;28;92429;-69
2022/06/08 01:45:38;;;;;;;2.47;2.27;;;13.00;99.90;13.00;100133.00;;;;4985002;28;99866;-69
2022/06/08 01:48:29;;;;;;;6.17;2.63;;;13.00;99.90;13.00;100111.00;;;;4970755;28;92490;-69
2022/06/08 01:51:44;;;;;;;4.30;2.60;;;13.00;99.90;12.90;100116.00;;;;4958315;28;110490;-69
2022/06/08 01:54:43;;;;;;;2.73;2.47;;;13.00;99.90;12.90;100121.00;;;;4934263;28;103119;-69
2022/06/08 01:57:38;;;;;;;3.07;2.43;;;13.00;99.90;12.90;100115.00;;;;4968839;28;95929;-69
2022/06/08 02:00:13;;;;;;;4.40;3.97;;;12.90;99.90;12.90;100110.00;;;;4985257;28;113810;-69
2022/06/08 02:02:51;;;;;;;5.93;3.67;;;12.90;99.90;12.80;100107.00;;;;4973660;28;114868;-69
2022/06/08 02:05:32;;;;;;;3.60;3.30;;;12.90;99.90;12.80;100109.00;;;;4969359;28;91920;-69
2022/06/08 02:08:34;;;;;;;3.57;2.93;;;12.80;99.90;12.70;100102.00;;;;4985511;28;92671;-69
2022/06/08 02:11:19;;;;;;;5.43;4.13;;;12.80;99.90;12.70;100102.00;;;;4971260;28;92464;-69
2022/06/08 02:13:52;;;;;;;3.70;3.40;;;12.80;99.90;12.80;100105.00;;;;4984381;28;93397;-69
2022/06/08 02:16:51;;;;;;;3.57;2.90;;;12.70;99.90;12.70;100107.00;;;;4986191;28;92438;-68
2022/06/08 02:19:39;;;;;;;5.57;4.17;;;12.70;99.90;12.70;100110.00;;;;4985805;28;92503;-69
2022/06/08 02:22:23;;;;;;;5.07;4.57;;;12.70;99.90;12.70;100106.00;;;;4985146;28;111134;-69
2022/06/08 02:24:57;;;;;;;4.23;3.37;;;12.70;99.90;12.70;100102.00;;;;4969283;28;108679;-68
2022/06/08 02:27:34;;;;;;;4.47;3.23;;;12.70;99.90;12.60;100111.00;;;;4985969;28;92571;-69
2022/06/08 02:30:14;;;;;;;5.77;3.27;;;12.60;99.90;12.60;100115.00;;;;4972219;28;100861;-69
2022/06/08 02:35:44;;;;;;;4.03;3.73;;;12.60;99.90;12.60;100118.00;;;;5000228;28;92551;-69
2022/06/08 02:38:21;;;;;;;4.63;3.83;;;12.60;99.90;12.50;100114.00;;;;4971463;28;101799;-69
2022/06/08 02:40:52;;;;;;;5.53;3.23;;;12.50;99.90;12.50;100103.00;;;;5005836;28;92791;-69
2022/06/08 02:43:26;;;;;;;4.73;4.27;;;12.50;99.90;12.50;100108.00;;;;5004339;28;113230;-69
2022/06/08 02:46:04;;;;;;;5.27;4.13;;;12.50;99.90;12.50;100108.00;;;;4989574;28;115487;-69
2022/06/08 02:48:32;;;;;;;5.33;4.50;;;12.50;99.90;12.50;100107.00;;;;5004473;28;101898;-68
2022/06/08 02:50:58;;;;;;;5.93;3.27;;;12.50;99.90;12.50;100101.00;;;;4997484;28;92698;-69
2022/06/08 02:53:53;;;;;;;4.50;3.53;;;12.50;99.90;12.40;100114.00;;;;4994959;28;93524;-69
2022/06/08 02:56:46;;;;;;;5.13;4.03;;;12.50;99.90;12.40;100111.00;;;;5004733;28;92677;-68
2022/06/08 02:59:18;;;;;;;4.53;3.53;;;12.40;99.90;12.40;100096.00;;;;4980546;28;91883;-69
2022/06/08 03:01:53;;;;;;;3.97;3.33;;;12.40;99.90;12.40;100101.00;;;;4990466;28;92942;-68
2022/06/08 03:04:28;;;;;;;4.43;3.40;;;12.40;99.90;12.30;100097.00;;;;4971324;28;100032;-69
2022/06/08 03:07:01;;;;;;;5.27;3.70;;;12.40;99.90;12.30;100109.00;;;;4971133;28;114882;-71
2022/06/08 03:09:27;;;;;;;5.47;3.73;;;12.40;99.90;12.30;100101.00;;;;5005254;28;93488;-70
2022/06/08 03:12:04;;;;;;;5.20;3.97;;;12.30;99.90;12.30;100105.00;;;;4988675;28;98644;-70
2022/06/08 03:14:30;;;;;;;4.23;3.47;;;12.30;99.90;12.30;100110.00;;;;4971937;28;92502;-70
2022/06/08 03:17:06;;;;;;;5.03;4.37;;;12.30;99.90;12.30;100111.00;;;;4987324;28;121802;-70
2022/06/08 03:19:34;;;;;;;5.90;3.90;;;12.30;99.90;12.30;100099.00;;;;5003982;28;92779;-70
2022/06/08 03:22:00;;;;;;;4.43;3.87;;;12.20;99.90;12.20;100096.00;;;;4972307;28;92344;-69
2022/06/08 03:24:27;;;;;;;5.23;4.73;;;12.30;99.90;12.30;100101.00;;;;4989695;28;114731;-70
2022/06/08 03:26:58;;;;;;;5.83;5.03;;;12.30;99.90;12.30;100101.00;;;;5004867;28;92484;-70
2022/06/08 03:29:24;;;;;;;4.20;3.80;;;12.30;99.90;12.30;100107.00;;;;4988437;28;101304;-70
2022/06/08 03:31:50;;;;;;;5.67;4.50;;;12.30;99.90;12.30;100110.00;;;;4989827;28;93821;-70
2022/06/08 03:34:17;;;;;;;6.57;4.80;;;12.30;99.90;12.30;100104.00;;;;4989241;28;93169;-70
2022/06/08 03:36:43;;;;;;;5.17;4.20;;;12.20;99.90;12.30;100105.00;;;;4987492;28;122111;-70
2022/06/08 03:39:10;;;;;;;4.53;4.13;;;12.30;99.90;12.30;100105.00;;;;4989104;28;109404;-70
2022/06/08 03:41:36;;;;;;;7.27;5.30;;;12.30;99.90;12.30;100108.00;;;;4971847;28;92417;-69
2022/06/08 03:44:03;;;;;;;5.00;4.50;;;12.30;99.90;12.30;100109.00;;;;4986593;28;120252;-70
2022/06/08 03:46:34;;;;;;;6.03;4.30;;;12.40;99.90;12.40;100113.00;;;;5005250;28;92519;-70
2022/06/08 03:48:59;;;;;;;6.20;4.70;;;12.30;99.90;12.40;100117.00;;;;4971389;28;91874;-70
2022/06/08 03:51:25;;;;;;;6.13;5.03;;;12.30;99.90;12.40;100114.00;;;;4980776;28;108039;-70
2022/06/08 03:54:03;;;;;;;5.73;4.47;;;12.40;99.90;12.40;100114.00;;;;4991812;28;93309;-69
2022/06/08 03:56:31;;;;;;;8.17;5.80;;;12.40;99.90;12.40;100109.00;;;;4969752;28;93439;-69
2022/06/08 03:58:57;;;;;;;7.93;5.23;;;12.40;99.90;12.50;100116.00;;;;4970928;28;100671;-70
2022/06/08 04:01:24;;;;;;;8.60;5.97;;;12.50;99.90;12.50;100114.00;;;;4970571;28;107898;-70
2022/06/08 04:03:52;;;;;;;6.73;5.30;;;12.50;99.90;12.60;100110.00;;;;4969689;28;106814;-70
2022/06/08 04:06:20;;;;;;;6.00;4.73;;;12.50;99.90;12.60;100107.00;;;;4967875;28;95002;-70
2022/06/08 04:08:45;;;;;;;6.63;4.97;;;12.50;99.90;12.60;100113.00;;;;4979061;28;92438;-70
2022/06/08 04:11:11;;;;;;;8.30;5.67;;;12.60;99.90;12.70;100107.00;;;;4988621;28;107874;-70
2022/06/08 04:13:38;;;;;;;8.93;6.23;;;12.60;99.90;12.70;100103.00;;;;4970038;28;121053;-70
2022/06/08 04:16:04;;;;;;;7.07;5.50;;;12.70;99.90;12.80;100112.00;;;;5005304;28;93005;-69
2022/06/08 04:18:30;;;;;;;6.17;4.90;;;12.70;99.90;12.80;100105.00;;;;4984940;28;92662;-70
2022/06/08 04:21:00;;;;;;;9.17;4.67;;;12.80;99.90;12.90;100113.00;;;;4998366;28;93358;-69
2022/06/08 04:23:29;;;;;;;6.93;5.57;;;12.80;99.90;13.00;100110.00;;;;5001193;28;93459;-69
2022/06/08 04:25:55;;;;;;;6.93;5.17;;;12.90;99.90;13.10;100112.00;;;;5002775;28;101780;-69
2022/06/08 04:28:22;;;;;;;8.57;5.63;;;13.00;99.90;13.20;100111.00;;;;4956236;28;94399;-70
2022/06/08 04:30:48;;;;;;;7.13;5.10;;;13.10;99.90;13.30;100108.00;;;;5004378;28;92507;-70
2022/06/08 04:33:15;;;;;;;6.97;6.20;;;13.20;99.90;13.40;100113.00;;;;4999249;28;111710;-69
2022/06/08 04:35:41;;;;;;;6.67;5.13;;;13.30;99.90;13.50;100117.00;;;;4994957;28;97082;-69
2022/06/08 04:38:07;;;;;;;5.90;5.27;;;13.40;99.90;13.70;100107.00;;;;4976505;28;92359;-69
2022/06/08 04:40:34;;;;;;;6.57;5.23;;;13.50;99.90;13.80;100104.00;;;;5005354;28;92946;-70
2022/06/08 04:43:00;;;;;;;5.77;3.90;;;13.70;99.90;13.90;100106.00;;;;4984781;28;92962;-69
2022/06/08 04:45:26;;;;;;;7.83;4.57;;;13.80;99.90;14.10;100109.00;;;;5004841;28;120046;-70
2022/06/08 04:47:52;;;;;;;7.93;4.97;;;14.00;99.90;14.20;100118.00;;;;4995916;28;108729;-70
2022/06/08 04:50:18;;;;;;;8.93;4.70;;;14.10;99.90;14.40;100113.00;;;;4981807;28;92476;-70
2022/06/08 04:52:44;;;;;;;5.73;4.23;;;14.30;99.90;14.60;100110.00;;;;5000356;28;113125;-69
2022/06/08 04:55:12;;;;;;;6.77;4.87;;;14.40;99.90;14.80;100112.00;;;;5006457;28;93202;-69
2022/06/08 04:57:38;;;;;;;5.97;4.23;;;14.60;99.90;15.00;100113.00;;;;4975742;28;99237;-69
2022/06/08 05:00:11;;;;;;;4.43;4.03;;;14.80;99.90;15.10;100115.00;;;;5006868;28;92638;-69
2022/06/08 05:02:48;;;;;;;3.60;3.30;;;15.00;99.90;15.30;100117.00;;;;4979415;28;92507;-69
2022/06/08 05:05:19;;;;;;;4.30;3.83;;;15.20;99.90;15.50;100123.00;;;;4983081;28;92727;-70
2022/06/08 05:07:51;;;;;;;5.85;4.00;;;15.40;99.90;15.70;100132.00;;;;5001367;28;92064;-69
2022/06/08 05:10:19;;;;;;;6.00;3.25;;;15.50;99.90;16.00;100125.00;;;;5007225;28;93472;-69
2022/06/08 05:12:45;;;;;;;6.05;3.72;;;15.80;99.90;16.20;100121.00;;;;4973341;28;93475;-69
2022/06/08 05:15:21;;;;;;;4.35;3.55;;;16.00;99.90;16.40;100120.00;;;;4991417;28;92352;-69
2022/06/08 05:17:47;;;;;;;3.53;2.65;;;16.20;99.90;16.60;100115.00;;;;4972339;28;92095;-69
2022/06/08 05:20:16;;;;;;;3.58;3.28;;;16.40;99.90;16.80;100104.00;;;;4973197;28;106844;-69
2022/06/08 05:22:44;;;;;;;5.55;3.13;;;16.60;99.90;17.00;100108.00;;;;5006678;28;92515;-70
2022/06/08 05:25:40;;;;;;;4.75;2.78;;;16.80;99.90;17.10;100104.00;;;;4990903;28;110805;-70
2022/06/08 05:28:08;;;;;;;5.55;2.55;;;16.90;99.90;17.30;100111.00;;;;4990746;28;91575;-70
2022/06/08 05:30:34;;;;;;;5.30;3.53;;;17.10;99.90;17.40;100110.00;;;;4992200;28;92829;-70
2022/06/08 05:33:01;;;;;;;3.88;2.92;;;17.20;99.90;17.60;100115.00;;;;5005744;28;92532;-70
2022/06/08 05:35:27;;;;;;;4.57;2.97;;;17.40;99.90;17.80;100112.00;;;;4990920;28;93356;-70
2022/06/08 05:37:53;;;;;;;3.45;2.85;;;17.60;99.90;18.00;100106.00;;;;5006074;28;92194;-70
2022/06/08 05:40:20;;;;;;;2.60;2.10;;;17.80;99.90;18.20;100108.00;;;;5006115;28;92537;-71
2022/06/08 05:42:46;;;;;;;1.88;1.75;;;18.30;99.90;18.50;100095.00;;;;4990189;28;112614;-71
2022/06/08 05:45:21;;;;;;;2.28;2.00;;;18.20;99.90;18.70;100099.00;;;;4956175;28;95060;-70
2022/06/08 05:47:47;;;;;;;3.70;2.60;;;18.40;99.90;19.00;100090.00;;;;4973380;28;92531;-71
2022/06/08 05:50:13;;;;;;;2.08;1.80;;;18.70;99.90;19.20;100099.00;;;;4973068;28;92024;-71
2022/06/08 05:52:40;;;;;;;2.45;1.67;;;18.90;99.90;19.40;100084.00;;;;4989345;28;94895;-71
2022/06/08 05:55:07;;;;;;;3.30;1.40;;;19.20;99.90;19.70;100096.00;;;;5006340;28;92396;-70
2022/06/08 05:57:32;;;;;;;1.45;1.35;;;19.40;99.90;19.80;100094.00;;;;4990069;28;91966;-70
2022/06/08 06:00:03;;;;;;;1.42;1.30;;;19.60;99.90;20.00;100100.00;;;;5005758;28;106529;-69
2022/06/08 06:02:29;;;;;;;2.00;1.23;;;19.80;99.90;20.20;100100.00;;;;4989148;28;113031;-69
2022/06/08 06:04:55;;;;;;;1.33;1.23;;;20.00;99.90;20.20;100098.00;;;;4989360;28;115802;-69
2022/06/08 06:07:20;;;;;;;1.33;1.23;;;20.10;99.90;20.30;100110.00;;;;4990511;28;108848;-69
2022/06/08 06:09:46;;;;;;;1.58;1.48;;;20.10;99.90;20.50;100111.00;;;;4990113;28;107391;-69
2022/06/08 06:12:13;;;;;;;1.50;1.40;;;20.30;99.90;20.60;100108.00;;;;4988591;28;121770;-70
2022/06/08 06:14:39;;;;;;;2.03;1.10;;;20.40;99.60;20.80;100109.00;;;;4989441;28;120058;-69
2022/06/08 06:17:05;;;;;;;1.15;0.93;;;20.60;99.20;21.00;100105.00;;;;4991774;28;91719;-70
2022/06/08 06:19:31;;;;;;;1.30;1.00;;;20.80;97.60;21.10;100097.00;;;;5006327;28;92563;-70
2022/06/08 06:21:56;;;;;;;0.80;0.80;;;20.90;95.60;21.20;100108.00;;;;5005395;28;93147;-70
2022/06/08 06:24:22;;;;;;;2.00;1.30;;;21.00;94.10;21.20;100103.00;;;;4990450;28;93863;-69
2022/06/08 06:26:57;;;;;;;1.63;0.90;;;21.00;93.60;21.30;100108.00;;;;4989767;28;92839;-70
2022/06/08 06:29:24;;;;;;;1.05;0.85;;;21.10;94.20;21.50;100096.00;;;;5004809;28;108161;-70
2022/06/08 06:31:59;;;;;;;1.30;1.00;;;21.20;93.50;21.60;100104.00;;;;4988818;28;117411;-69
2022/06/08 06:34:26;;;;;;;0.80;0.80;;;21.40;93.20;21.80;100112.00;;;;4969225;28;115131;-70
2022/06/08 06:36:53;;;;;;;0.63;0.63;;;21.60;91.50;21.90;100106.00;;;;5004217;28;92861;-69
2022/06/08 06:39:21;;;;;;;0.63;0.50;;;21.70;90.90;22.10;100104.00;;;;4973566;28;92802;-69
2022/06/08 06:41:47;;;;;;;0.77;0.60;;;21.90;90.20;22.20;100106.00;;;;4991389;28;91748;-68
2022/06/08 06:44:16;;;;;;;0.75;0.60;;;22.00;90.10;22.40;100095.00;;;;4990267;28;92712;-69
2022/06/08 06:46:42;;;;;;;0.57;0.57;;;22.20;89.90;22.60;100098.00;;;;4972089;28;92117;-69
2022/06/08 06:49:08;;;;;;;0.65;0.60;;;22.30;87.30;22.70;100101.00;;;;4989450;28;107948;-71
2022/06/08 06:51:35;;;;;;;0.63;0.43;;;22.50;86.60;22.80;100103.00;;;;4999441;28;121906;-69
2022/06/08 06:54:03;;;;;;;1.00;0.77;;;22.60;84.30;22.90;100102.00;;;;4991118;28;93374;-71
2022/06/08 06:56:29;;;;;;;0.30;0.30;;;22.70;83.90;23.00;100100.00;;;;4972421;28;92462;-69
2022/06/08 06:58:54;;;;;;;0.50;0.50;;;22.80;82.40;23.20;100100.00;;;;4989577;28;109110;-69
2022/06/08 07:01:20;;;;;;;0.47;0.45;;;22.90;82.50;23.40;100095.00;;;;4988319;28;121733;-68
2022/06/08 07:03:46;;;;;;;1.38;0.40;;;23.20;82.50;23.60;100094.00;;;;4989779;28;122392;-69
2022/06/08 07:06:12;;;;;;;0.30;0.30;;;23.40;80.60;23.80;100097.00;;;;4989745;28;100147;-69
2022/06/08 07:08:38;;;;;;;0.20;0.20;;;23.50;79.10;23.90;100085.00;;;;4952084;28;92444;-69
2022/06/08 07:13:49;;;;;;;2.35;0.47;;;23.80;75.60;24.20;100085.00;;;;4972725;28;93362;-70
2022/06/08 07:16:15;;;;;;;1.25;0.32;;;23.90;75.60;24.30;100077.00;;;;5005551;28;92565;-69
2022/06/08 07:18:41;;;;;;;0.20;0.20;;;24.10;73.00;24.40;100076.00;;;;5006096;28;92216;-69
2022/06/08 07:21:07;;;;;;;0.40;0.38;;;24.20;69.90;24.40;100075.00;;;;5004962;28;100493;-69
2022/06/08 07:23:32;;;;;;;0.20;0.20;;;24.20;68.00;24.30;100069.00;;;;4988339;28;120222;-69
2022/06/08 07:25:58;;;;;;;0.35;0.35;;;24.20;68.80;24.40;100075.00;;;;4989133;28;108296;-69
2022/06/08 07:28:24;;;;;;;1.30;0.47;;;24.20;69.50;24.60;100070.00;;;;4988242;28;107438;-69
2022/06/08 07:30:50;;;;;;;0.30;0.30;;;24.30;69.30;24.80;100077.00;;;;4989378;28;92349;-69
2022/06/08 07:33:15;;;;;;;0.50;0.50;;;24.60;68.30;24.90;100074.00;;;;4971965;28;92442;-69
2022/06/08 07:35:41;;;;;;;0.68;0.63;;;24.70;68.00;25.20;100073.00;;;;4988787;28;107671;-70
2022/06/08 07:38:08;;;;;;;0.32;0.30;;;24.90;68.40;25.50;100077.00;;;;4989047;28;93287;-69
2022/06/08 07:40:34;;;;;;;0.45;0.30;;;25.20;66.30;25.50;100081.00;;;;4989279;28;92453;-69
2022/06/08 07:42:59;;;;;;;0.63;0.63;;;25.30;64.00;25.60;100078.00;;;;4969550;28;121922;-70
2022/06/08 07:45:25;;;;;;;0.70;0.20;;;25.40;63.40;25.70;100068.00;;;;4988911;28;109955;-71
2022/06/08 07:50:35;;;;;;;0.57;0.40;;;25.60;62.20;26.00;100069.00;;;;4988219;28;92460;-75
2022/06/08 07:53:01;;;;;;;1.92;0.80;;;25.70;61.00;26.00;100081.00;;;;4997725;28;121253;-74
2022/06/08 07:55:27;;;;;;;0.57;0.50;;;25.80;60.10;26.10;100081.00;;;;4970344;28;109414;-73
2022/06/08 07:57:53;;;;;;;0.82;0.63;;;25.90;60.90;26.30;100081.00;;;;4986179;28;108127;-76
2022/06/08 08:00:20;;;;;;;0.85;0.50;;;26.10;61.00;26.50;100075.00;;;;4971862;28;92874;-73
2022/06/08 08:02:46;;;;;;;0.55;0.55;;;26.30;59.70;26.60;100070.00;;;;4987578;28;109998;-73
2022/06/08 08:05:14;;;;;;;0.50;0.50;;;26.40;58.50;26.70;100073.00;;;;4988829;28;110074;-76
2022/06/08 08:07:41;;;;;;;0.28;0.28;;;26.50;58.20;26.70;100075.00;;;;5004320;28;92929;-74
2022/06/08 08:10:12;;;;;;;0.65;0.47;;;26.60;57.40;26.60;100081.00;;;;4970749;28;92547;-73
2022/06/08 08:12:38;;;;;;;0.77;0.60;;;26.50;55.80;26.50;100080.00;;;;5004575;28;92466;-73
2022/06/08 08:15:05;;;;;;;0.52;0.38;;;26.40;55.10;26.50;100076.00;;;;4992257;28;109737;-74
2022/06/08 08:17:32;;;;;;;0.32;0.32;;;26.30;55.70;26.50;100076.00;;;;4991872;28;98756;-75
2022/06/08 08:19:57;;;;;;;0.60;0.60;;;26.30;56.10;26.60;100070.00;;;;5007931;28;91869;-74
2022/06/08 08:22:23;;;;;;;0.73;0.47;;;26.40;55.00;26.60;100069.00;;;;4989994;28;119576;-74
2022/06/08 08:24:49;;;;;;;0.98;0.70;;;26.40;53.60;26.60;100068.00;;;;4993146;28;92663;-75
2022/06/08 08:27:15;;;;;;;0.95;0.73;;;26.40;53.50;26.50;100079.00;;;;4989764;28;92984;-73
2022/06/08 08:29:41;;;;;;;0.50;0.43;;;26.30;53.60;26.50;100073.00;;;;4991107;28;121528;-73
2022/06/08 08:32:10;;;;;;;0.60;0.60;;;26.30;53.60;26.50;100060.00;;;;4990896;28;122895;-73
2022/06/08 08:34:36;;;;;;;0.47;0.47;;;26.30;52.20;26.50;100070.00;;;;4992324;28;92110;-73
2022/06/08 08:37:03;;;;;;;2.40;0.75;;;26.30;52.60;26.40;100079.00;;;;4993225;28;92426;-74
2022/06/08 08:39:28;;;;;;;1.20;1.10;;;26.20;52.50;26.40;100079.00;;;;4991162;28;112115;-75
2022/06/08 08:44:43;;;;;;;1.00;0.60;;;26.20;52.30;26.30;100090.00;;;;4972808;28;91689;-75
2022/06/08 08:47:47;;;;;;;0.93;0.68;;;26.10;52.30;26.30;100084.00;;;;4990943;28;94415;-74
2022/06/08 08:50:33;;;;;;;0.88;0.57;;;26.10;51.90;26.20;100070.00;;;;5008140;28;104495;-74
2022/06/08 08:53:26;;;;;;;2.38;0.63;;;26.20;52.60;26.10;100068.00;;;;4972373;28;93419;-72
2022/06/08 08:56:25;;;;;;;0.60;0.60;;;25.90;52.70;26.10;100075.00;;;;4974268;28;92413;-75
2022/06/08 08:58:52;;;;;;;1.33;0.82;;;25.90;53.00;26.10;100069.00;;;;4991441;28;92466;-73
2022/06/08 09:01:34;;;;;;;0.63;0.63;;;25.90;53.00;26.20;100074.00;;;;4991490;28;92514;-74
2022/06/08 09:04:16;;;;;;;9.63;2.05;;;25.90;53.50;26.30;100068.00;;;;4973749;28;92094;-74
2022/06/08 09:06:42;;;;;;;0.57;0.50;;;26.00;53.10;26.50;100052.00;;;;4986405;28;92375;-73
2022/06/08 09:09:16;;;;;;;0.57;0.50;;;26.10;53.50;26.60;100050.00;;;;4990221;28;92265;-73
2022/06/08 09:11:44;;;;;;;0.40;0.40;;;26.30;52.60;26.60;100058.00;;;;4956846;28;116037;-72
2022/06/08 09:14:19;;;;;;;0.30;0.30;;;26.30;52.60;26.70;100057.00;;;;4971936;28;92655;-76
2022/06/08 09:17:16;;;;;;;0.38;0.30;;;26.40;52.60;26.90;100045.00;;;;4967717;28;92058;-73
2022/06/08 09:19:50;;;;;;;0.60;0.30;;;26.60;51.40;26.80;100054.00;;;;4973795;28;92940;-73
2022/06/08 09:22:32;;;;;;;0.45;0.45;;;26.60;51.20;26.80;100047.00;;;;5006146;28;93074;-73
2022/06/08 09:25:26;;;;;;;0.38;0.38;;;26.60;50.90;26.90;100044.00;;;;5005752;28;120268;-73
2022/06/08 09:27:55;;;;;;;0.47;0.45;;;26.60;51.10;27.00;100033.00;;;;4962283;28;92622;-73
2022/06/08 09:30:28;;;;;;;0.20;0.20;;;26.70;50.70;27.10;100036.00;;;;4973983;28;91990;-74
2022/06/08 09:32:59;;;;;;;0.80;0.57;;;26.70;50.80;27.10;100031.00;;;;5005431;28;92465;-74
2022/06/08 09:35:52;;;;;;;0.88;0.45;;;26.80;51.00;27.20;100027.00;;;;5006525;28;92550;-75
2022/06/08 09:38:40;;;;;;;0.47;0.38;;;26.80;51.00;27.40;100026.00;;;;4986393;28;92000;-74
2022/06/08 09:41:38;;;;;;;0.20;0.20;;;27.00;50.10;27.40;100024.00;;;;4975952;28;92316;-73
2022/06/08 09:44:18;;;;;;;0.30;0.25;;;27.10;48.80;27.40;100025.00;;;;5006328;28;93166;-72
2022/06/08 09:54:05;;;;;;;0.73;0.60;;;27.00;49.50;27.50;100011.00;;;;4974392;28;92446;-74
2022/06/08 09:56:49;;;;;;;2.47;0.47;;;27.10;50.00;27.80;100007.00;;;;4953264;28;115346;-73
2022/06/08 09:59:30;;;;;;;0.45;0.38;;;27.30;49.40;28.10;100007.00;;;;4971069;28;94612;-77
2022/06/08 10:02:21;;;;;;;0.50;0.32;;;27.60;49.60;28.40;100001.00;;;;4988809;28;95422;-73
2022/06/08 10:05:08;;;;;;;0.50;0.50;;;27.90;50.10;28.70;99991.00;;;;4974075;28;91956;-74
2022/06/08 10:07:59;;;;;;;0.63;0.63;;;28.20;47.30;28.60;99984.00;;;;4987900;28;91897;-75
2022/06/08 10:10:45;;;;;;;0.30;0.30;;;28.20;47.00;28.60;99990.00;;;;4972225;28;107418;-75
2022/06/08 10:13:20;;;;;;;0.28;0.25;;;28.20;46.90;28.70;99978.00;;;;4971028;28;101564;-75
2022/06/08 10:15:52;;;;;;;1.05;0.40;;;28.20;45.80;28.60;99981.00;;;;4989270;28;93450;-76
2022/06/08 10:18:31;;;;;;;0.20;0.20;;;28.20;45.20;28.60;99976.00;;;;4971425;28;112835;-73
2022/06/08 10:21:09;;;;;;;0.57;0.40;;;28.20;45.90;28.70;99975.00;;;;4972636;28;92299;-74
2022/06/08 10:23:42;;;;;;;0.57;0.30;;;28.20;46.10;28.80;99965.00;;;;5004558;28;99092;-75
2022/06/08 10:26:29;;;;;;;0.68;0.40;;;28.30;45.60;29.00;99967.00;;;;4991277;28;93425;-76
2022/06/08 10:29:21;;;;;;;0.20;0.20;;;28.40;45.90;29.20;99965.00;;;;4968010;28;92319;-76
2022/06/08 10:31:57;;;;;;;0.80;0.35;;;28.60;46.20;29.50;99956.00;;;;4935736;28;93771;-75
2022/06/08 10:34:31;;;;;;;0.25;0.25;;;28.90;45.80;29.70;99963.00;;;;4953108;28;91189;-75
2022/06/08 10:37:22;;;;;;;0.25;0.20;;;29.10;44.30;29.60;99952.00;;;;5001227;28;92041;-73
2022/06/08 10:39:48;;;;;;;0.20;0.20;;;29.10;44.20;29.50;99951.00;;;;4968863;28;92629;-73
2022/06/08 10:42:40;;;;;;;0.22;0.20;;;29.00;44.20;29.30;99961.00;;;;4983952;28;102354;-77
2022/06/08 10:45:26;;;;;;;0.85;0.20;;;28.90;42.90;29.30;99942.00;;;;4998715;28;92711;-77
2022/06/08 10:48:10;;;;;;;0.38;0.38;;;28.80;43.50;29.50;99949.00;;;;4968329;28;92799;-77
2022/06/08 10:50:40;;;;;;;0.10;0.10;;;28.90;44.10;29.60;99957.00;;;;4970653;28;103981;-73
2022/06/08 10:56:24;;;;;;;0.17;0.17;;;29.20;43.50;29.90;99956.00;;;;4967717;28;92477;-77
2022/06/08 10:59:08;;;;;;;0.35;0.30;;;29.30;43.30;30.00;99951.00;;;;4970004;28;92625;-74
2022/06/08 11:02:24;;;;;;;0.32;0.32;;;29.50;43.20;30.00;99924.00;;;;4969320;28;121332;-73
2022/06/08 11:05:17;;;;;;;0.47;0.47;;;29.50;43.60;30.00;99940.00;;;;4973554;28;92436;-74
2022/06/08 11:08:22;;;;;;;0.20;0.20;;;29.50;43.10;30.00;99943.00;;;;4982128;28;92648;-73
2022/06/08 11:10:49;;;;;;;1.00;0.30;;;29.50;43.20;30.20;99953.00;;;;4953070;28;93670;-76
2022/06/08 11:13:29;;;;;;;0.28;0.28;;;29.70;43.50;30.00;99948.00;;;;4969440;28;92428;-74
2022/06/08 11:16:15;;;;;;;0.63;0.20;;;29.70;43.30;29.80;99941.00;;;;4984490;28;92512;-76
2022/06/08 11:19:01;;;;;;;0.20;0.20;;;29.50;43.30;29.60;99941.00;;;;4984990;28;92343;-74
2022/06/08 11:21:54;;;;;;;0.90;0.40;;;29.30;43.70;29.20;99946.00;;;;4952024;28;92281;-73
2022/06/08 11:24:30;;;;;;;0.32;0.32;;;29.10;43.60;29.00;99934.00;;;;4948357;28;92674;-73
2022/06/08 11:27:11;;;;;;;0.32;0.32;;;28.70;44.30;28.90;99942.00;;;;4918270;28;94463;-77
2022/06/08 11:29:47;;;;;;;0.40;0.40;;;28.70;44.90;28.60;99945.00;;;;4971161;28;91770;-73
2022/06/08 11:32:33;;;;;;;0.30;0.30;;;28.40;45.00;28.30;99937.00;;;;5004465;28;92499;-73
2022/06/08 11:35:25;;;;;;;0.10;0.10;;;28.10;45.40;28.00;99937.00;;;;4989965;28;93071;-76